sensor_id;sensor_type;location;lat;lon;timestamp;temperature;humidity
9875;DHT22;4976;46.786;7.632;2023-02-11T05:04:36;-4.30;1.00
9875;DHT22;4976;46.786;7.632;2023-02-11T05:07:41;-4.30;1.00
9875;DHT22;4976;46.786;7.632;2023-02-11T05:10:22;-4.00;1.00
9875;DHT22;4976;46.786;7.632;2023-02-11T05:13:14;-3.90;1.00
9875;DHT22;4976;46.786;7.632;2023-02-11T05:16:20;-3.60;1.00
9875;DHT22;4976;46.786;7.632;2023-02-11T09:29:48;1.10;21.70
9875;DHT22;4976;46.786;7.632;2023-02-11T09:32:38;1.20;1.00
9875;DHT22;4976;46.786;7.632;2023-02-11T09:45:59;1.70;1.00
9875;DHT22;4976;46.786;7.632;2023-02-11T09:52:07;1.90;1.00
9875;DHT22;4976;46.786;7.632;2023-02-11T09:54:54;2.20;1.00
9875;DHT22;4976;46.786;7.632;2023-02-11T10:14:49;2.50;1.00
9875;DHT22;4976;46.786;7.632;2023-02-11T10:24:39;3.30;1.00
9875;DHT22;4976;46.786;7.632;2023-02-11T10:27:43;3.40;1.00
9875;DHT22;4976;46.786;7.632;2023-02-11T10:58:33;3.30;1.00
9875;DHT22;4976;46.786;7.632;2023-02-11T11:01:02;3.80;1.00
9875;DHT22;4976;46.786;7.632;2023-02-11T11:03:35;4.20;1.00
9875;DHT22;4976;46.786;7.632;2023-02-11T11:06:06;4.40;1.00
9875;DHT22;4976;46.786;7.632;2023-02-11T11:08:41;4.70;1.00
9875;DHT22;4976;46.786;7.632;2023-02-11T11:11:10;4.80;1.00
9875;DHT22;4976;46.786;7.632;2023-02-11T11:13:41;4.70;1.00
9875;DHT22;4976;46.786;7.632;2023-02-11T11:16:19;4.50;1.00
9875;DHT22;4976;46.786;7.632;2023-02-11T11:19:14;4.20;1.00
9875;DHT22;4976;46.786;7.632;2023-02-11T11:21:51;4.00;1.00
9875;DHT22;4976;46.786;7.632;2023-02-11T11:24:30;4.30;1.00
9875;DHT22;4976;46.786;7.632;2023-02-11T11:27:01;4.40;1.00
9875;DHT22;4976;46.786;7.632;2023-02-11T11:29:39;4.50;1.00
9875;DHT22;4976;46.786;7.632;2023-02-11T11:35:30;5.10;1.00
9875;DHT22;4976;46.786;7.632;2023-02-11T11:38:14;5.30;99.90
9875;DHT22;4976;46.786;7.632;2023-02-11T11:41:15;5.40;99.90
9875;DHT22;4976;46.786;7.632;2023-02-11T11:43:57;5.60;99.90
9875;DHT22;4976;46.786;7.632;2023-02-11T11:46:42;5.80;99.90
9875;DHT22;4976;46.786;7.632;2023-02-11T11:49:24;6.10;99.90
9875;DHT22;4976;46.786;7.632;2023-02-11T11:52:38;6.20;99.90
9875;DHT22;4976;46.786;7.632;2023-02-11T11:55:33;6.00;99.90
9875;DHT22;4976;46.786;7.632;2023-02-11T11:58:18;5.90;99.90
9875;DHT22;4976;46.786;7.632;2023-02-11T12:01:19;6.00;99.90
9875;DHT22;4976;46.786;7.632;2023-02-11T12:04:18;6.20;99.90
9875;DHT22;4976;46.786;7.632;2023-02-11T12:07:04;6.10;99.90
9875;DHT22;4976;46.786;7.632;2023-02-11T12:10:24;6.10;99.90
9875;DHT22;4976;46.786;7.632;2023-02-11T12:13:18;5.80;99.90
9875;DHT22;4976;46.786;7.632;2023-02-11T12:15:56;5.90;99.90
9875;DHT22;4976;46.786;7.632;2023-02-11T12:18:54;6.20;99.90
9875;DHT22;4976;46.786;7.632;2023-02-11T12:21:37;6.40;99.90
9875;DHT22;4976;46.786;7.632;2023-02-11T12:24:33;6.50;99.90
9875;DHT22;4976;46.786;7.632;2023-02-11T12:27:09;6.70;99.90
9875;DHT22;4976;46.786;7.632;2023-02-11T12:29:46;6.90;99.90
9875;DHT22;4976;46.786;7.632;2023-02-11T12:32:25;6.90;99.90
9875;DHT22;4976;46.786;7.632;2023-02-11T12:35:31;6.90;99.90
9875;DHT22;4976;46.786;7.632;2023-02-11T12:38:24;6.80;99.90
9875;DHT22;4976;46.786;7.632;2023-02-11T12:41:06;6.80;99.90
9875;DHT22;4976;46.786;7.632;2023-02-11T12:44:02;6.60;99.90
9875;DHT22;4976;46.786;7.632;2023-02-11T12:46:44;6.50;99.90
9875;DHT22;4976;46.786;7.632;2023-02-11T12:49:44;6.40;99.90
9875;DHT22;4976;46.786;7.632;2023-02-11T12:55:56;6.40;99.90
9875;DHT22;4976;46.786;7.632;2023-02-11T18:44:05;1.50;99.90
9875;DHT22;4976;46.786;7.632;2023-02-11T18:47:16;1.50;42.60
9875;DHT22;4976;46.786;7.632;2023-02-11T21:36:19;-0.50;1.00
9875;DHT22;4976;46.786;7.632;2023-02-11T21:39:23;-0.40;1.00
9875;DHT22;4976;46.786;7.632;2023-02-11T21:41:57;-0.60;1.00
9875;DHT22;4976;46.786;7.632;2023-02-11T21:48:13;-0.70;99.90
9875;DHT22;4976;46.786;7.632;2023-02-11T21:58:28;-0.50;99.90
9875;DHT22;4976;46.786;7.632;2023-02-11T22:01:25;-0.50;99.90
9875;DHT22;4976;46.786;7.632;2023-02-11T22:04:36;-0.30;99.90
9875;DHT22;4976;46.786;7.632;2023-02-11T22:07:28;-0.20;1.00
9875;DHT22;4976;46.786;7.632;2023-02-11T22:09:55;-0.40;99.90
9875;DHT22;4976;46.786;7.632;2023-02-11T22:12:24;-0.50;1.00
9875;DHT22;4976;46.786;7.632;2023-02-11T22:14:52;-0.60;87.70
9875;DHT22;4976;46.786;7.632;2023-02-11T22:17:21;-0.60;99.90
9875;DHT22;4976;46.786;7.632;2023-02-11T22:19:51;-0.50;87.70
9875;DHT22;4976;46.786;7.632;2023-02-11T22:22:20;-0.40;31.80
9875;DHT22;4976;46.786;7.632;2023-02-11T22:24:48;-0.30;1.00
9875;DHT22;4976;46.786;7.632;2023-02-11T22:27:15;-0.40;1.00
9875;DHT22;4976;46.786;7.632;2023-02-11T22:29:45;-0.60;33.20
9875;DHT22;4976;46.786;7.632;2023-02-11T22:32:14;-0.70;99.90
9875;DHT22;4976;46.786;7.632;2023-02-11T22:34:44;-0.70;99.90
9875;DHT22;4976;46.786;7.632;2023-02-11T22:37:15;-0.60;99.90
9875;DHT22;4976;46.786;7.632;2023-02-11T22:39:44;-0.50;99.90
9875;DHT22;4976;46.786;7.632;2023-02-11T22:42:11;-0.60;99.90
9875;DHT22;4976;46.786;7.632;2023-02-11T22:44:38;-0.50;99.90
9875;DHT22;4976;46.786;7.632;2023-02-11T22:47:08;-0.50;99.90
9875;DHT22;4976;46.786;7.632;2023-02-11T22:49:37;-0.50;15.10
9875;DHT22;4976;46.786;7.632;2023-02-11T22:52:05;-0.40;32.50
9875;DHT22;4976;46.786;7.632;2023-02-11T22:54:35;-0.40;1.00
9875;DHT22;4976;46.786;7.632;2023-02-11T22:57:02;-0.50;1.00
9875;DHT22;4976;46.786;7.632;2023-02-11T22:59:36;-0.60;1.00
